createdAt,value
2018-08-22T00:01:50.383Z,19.00
2018-08-22T00:04:18.824Z,18.90
2018-08-22T00:06:47.274Z,18.80
2018-08-22T00:09:15.728Z,18.80
2018-08-22T00:11:44.222Z,18.80
2018-08-22T00:14:12.764Z,18.80
2018-08-22T00:16:41.222Z,18.80
2018-08-22T00:19:09.798Z,18.80
2018-08-22T00:21:38.953Z,18.80
2018-08-22T00:24:07.536Z,18.80
2018-08-22T00:26:35.997Z,18.70
2018-08-22T00:29:04.691Z,18.80
2018-08-22T00:31:33.106Z,18.70
2018-08-22T00:34:01.534Z,18.80
2018-08-22T00:36:29.966Z,18.80
2018-08-22T00:38:58.393Z,18.80
2018-08-22T00:41:26.851Z,18.80
2018-08-22T00:43:55.513Z,18.80
2018-08-22T00:46:24.095Z,18.70
2018-08-22T00:48:52.671Z,18.70
2018-08-22T00:51:21.115Z,18.70
2018-08-22T00:53:49.571Z,18.70
2018-08-22T00:56:18.012Z,18.70
2018-08-22T00:58:46.564Z,18.70
2018-08-22T01:01:15.180Z,18.70
2018-08-22T01:03:43.624Z,18.60
2018-08-22T01:06:12.068Z,18.60
2018-08-22T01:08:40.522Z,18.60
2018-08-22T01:11:08.960Z,18.60
2018-08-22T01:13:37.396Z,18.60
2018-08-22T01:16:06.164Z,18.60
2018-08-22T01:18:34.640Z,18.50
2018-08-22T01:21:03.069Z,18.50
2018-08-22T01:23:31.571Z,18.50
2018-08-22T01:26:00.125Z,18.50
2018-08-22T01:28:28.697Z,18.50
2018-08-22T01:30:57.274Z,18.40
2018-08-22T01:33:25.794Z,18.40
2018-08-22T01:35:54.233Z,18.40
2018-08-22T01:38:22.667Z,18.30
2018-08-22T01:40:51.118Z,18.30
2018-08-22T01:43:19.556Z,18.30
2018-08-22T01:45:48.013Z,18.30
2018-08-22T01:48:16.452Z,18.20
2018-08-22T01:50:45.150Z,18.30
2018-08-22T01:53:13.585Z,18.30
2018-08-22T01:55:42.043Z,18.30
2018-08-22T01:58:10.575Z,18.20
2018-08-22T02:00:39.189Z,18.20
2018-08-22T02:03:07.708Z,18.20
2018-08-22T02:05:36.439Z,18.20
2018-08-22T02:08:05.015Z,18.10
2018-08-22T02:10:33.557Z,18.10
2018-08-22T02:13:01.993Z,18.00
2018-08-22T02:15:30.511Z,18.00
2018-08-22T02:17:58.952Z,17.90
2018-08-22T02:20:27.411Z,18.00
2018-08-22T02:22:56.121Z,17.90
2018-08-22T02:25:24.671Z,17.90
2018-08-22T02:27:53.113Z,17.90
2018-08-22T02:30:21.805Z,17.90
2018-08-22T02:32:50.321Z,18.00
2018-08-22T02:35:18.757Z,17.90
2018-08-22T02:37:47.217Z,17.90
2018-08-22T02:40:15.670Z,17.90
2018-08-22T02:42:44.121Z,17.90
2018-08-22T02:45:12.579Z,18.00
2018-08-22T02:47:41.029Z,18.00
2018-08-22T02:50:09.585Z,17.90
2018-08-22T02:52:38.055Z,17.90
2018-08-22T02:55:06.605Z,18.00
2018-08-22T02:57:35.049Z,17.90
2018-08-22T03:00:03.593Z,17.90
2018-08-22T03:02:32.120Z,18.00
2018-08-22T03:05:00.607Z,18.00
2018-08-22T03:07:29.115Z,18.00
2018-08-22T03:09:57.606Z,18.00
2018-08-22T03:12:26.063Z,18.10
2018-08-22T03:14:54.631Z,18.10
2018-08-22T03:17:23.082Z,18.00
2018-08-22T03:19:51.590Z,18.10
2018-08-22T03:22:20.037Z,18.10
2018-08-22T03:24:48.466Z,18.10
2018-08-22T03:27:16.898Z,18.10
2018-08-22T03:29:45.343Z,18.00
2018-08-22T03:32:13.761Z,18.10
2018-08-22T03:34:42.286Z,18.10
2018-08-22T03:37:10.771Z,18.10
2018-08-22T03:39:39.433Z,18.10
2018-08-22T03:42:07.887Z,18.00
2018-08-22T03:44:36.366Z,18.00
2018-08-22T03:47:04.813Z,18.00
2018-08-22T03:49:33.262Z,18.00
2018-08-22T03:52:01.731Z,18.00
2018-08-22T03:54:30.169Z,18.00
2018-08-22T03:56:58.633Z,18.10
2018-08-22T03:59:27.075Z,18.10
2018-08-22T04:01:55.496Z,18.10
2018-08-22T04:04:23.959Z,18.10
2018-08-22T04:06:52.428Z,18.10
2018-08-22T04:09:20.851Z,18.20
2018-08-22T04:11:49.409Z,18.20
2018-08-22T04:14:17.855Z,18.20
2018-08-22T04:16:46.299Z,18.20
2018-08-22T04:19:14.867Z,18.20
2018-08-22T04:21:43.466Z,18.20
2018-08-22T04:24:11.889Z,18.20
2018-08-22T04:26:40.428Z,18.20
2018-08-22T04:29:08.900Z,18.20
2018-08-22T04:31:37.390Z,18.20
2018-08-22T04:34:05.882Z,18.20
2018-08-22T04:36:34.454Z,18.10
2018-08-22T04:39:02.985Z,18.20
2018-08-22T04:41:31.460Z,18.10
2018-08-22T04:44:00.020Z,18.20
2018-08-22T04:46:28.468Z,18.20
2018-08-22T04:48:56.934Z,18.30
2018-08-22T04:51:25.420Z,18.30
2018-08-22T04:53:53.909Z,18.30
2018-08-22T04:56:22.358Z,18.30
2018-08-22T04:58:50.898Z,18.40
2018-08-22T05:01:19.449Z,18.30
2018-08-22T05:03:47.954Z,18.30
2018-08-22T05:06:16.468Z,18.30
2018-08-22T05:08:45.157Z,18.40
2018-08-22T05:11:13.658Z,18.40
2018-08-22T05:13:42.092Z,18.50
2018-08-22T05:16:10.547Z,18.50
2018-08-22T05:18:38.977Z,18.50
2018-08-22T05:21:07.441Z,18.50
2018-08-22T05:23:35.906Z,18.50
2018-08-22T05:26:04.340Z,18.50
2018-08-22T05:28:32.880Z,18.60
2018-08-22T05:31:01.386Z,18.60
2018-08-22T05:33:29.882Z,18.60
2018-08-22T05:35:58.390Z,18.60
2018-08-22T05:38:26.838Z,18.60
2018-08-22T05:40:55.316Z,18.60
2018-08-22T05:43:23.760Z,18.60
2018-08-22T05:45:52.238Z,18.70
2018-08-22T05:48:20.716Z,18.70
2018-08-22T05:50:49.212Z,18.80
2018-08-22T05:53:17.685Z,18.80
2018-08-22T05:55:46.168Z,18.80
2018-08-22T05:58:14.606Z,18.90
2018-08-22T06:00:43.100Z,18.90
2018-08-22T06:03:16.897Z,18.90
2018-08-22T06:05:45.867Z,18.90
2018-08-22T06:08:15.684Z,19.00
2018-08-22T06:10:44.148Z,19.00
2018-08-22T06:13:12.633Z,19.10
2018-08-22T06:15:41.170Z,19.20
2018-08-22T06:18:09.613Z,19.20
2018-08-22T06:20:38.046Z,19.20
2018-08-22T06:23:06.789Z,19.20
2018-08-22T06:25:35.299Z,19.20
2018-08-22T06:28:03.868Z,19.10
2018-08-22T06:30:32.478Z,19.10
2018-08-22T06:33:01.798Z,19.00
2018-08-22T06:35:30.309Z,19.00
2018-08-22T06:37:58.771Z,19.10
2018-08-22T06:40:27.330Z,19.20
2018-08-22T06:42:55.802Z,19.20
2018-08-22T06:45:24.368Z,19.20
2018-08-22T06:47:52.858Z,19.30
2018-08-22T06:50:21.371Z,19.30
2018-08-22T06:52:50.077Z,19.40
2018-08-22T06:55:18.534Z,19.50
2018-08-22T06:57:46.988Z,19.60
2018-08-22T07:00:20.404Z,19.60
2018-08-22T07:02:48.854Z,19.70
2018-08-22T07:05:17.299Z,19.80
2018-08-22T07:07:45.734Z,19.90
2018-08-22T07:10:14.165Z,19.90
2018-08-22T07:12:42.931Z,20.00
2018-08-22T07:15:11.414Z,20.10
2018-08-22T07:17:39.879Z,20.10
2018-08-22T07:20:08.618Z,20.10
2018-08-22T07:22:37.119Z,20.20
2018-08-22T07:25:05.695Z,20.30
2018-08-22T07:27:34.213Z,20.30
2018-08-22T07:30:02.973Z,20.30
2018-08-22T07:32:31.524Z,20.40
2018-08-22T07:34:59.977Z,20.50
2018-08-22T07:37:28.442Z,20.70
2018-08-22T07:39:56.973Z,20.80
2018-08-22T07:42:25.425Z,20.90
2018-08-22T07:44:53.881Z,21.10
2018-08-22T07:47:22.348Z,21.20
2018-08-22T07:49:50.812Z,21.30
2018-08-22T07:52:19.342Z,21.40
2018-08-22T07:54:48.099Z,21.50
2018-08-22T07:57:18.162Z,21.50
2018-08-22T07:59:46.731Z,21.60
2018-08-22T08:02:15.283Z,21.60
2018-08-22T08:04:43.828Z,21.60
2018-08-22T08:07:12.305Z,21.70
2018-08-22T08:09:40.805Z,21.80
2018-08-22T08:12:09.409Z,21.80
2018-08-22T08:14:37.954Z,21.90
2018-08-22T08:17:06.528Z,22.00
2018-08-22T08:19:34.953Z,21.90
2018-08-22T08:22:03.534Z,22.00
2018-08-22T08:24:32.133Z,22.30
2018-08-22T08:27:00.855Z,22.40
2018-08-22T08:29:29.304Z,22.30
2018-08-22T08:31:57.778Z,22.30
2018-08-22T08:34:26.262Z,22.50
2018-08-22T08:36:54.767Z,22.50
2018-08-22T08:39:23.228Z,22.60
2018-08-22T08:41:51.786Z,22.90
2018-08-22T08:44:20.322Z,23.00
2018-08-22T08:46:48.960Z,23.20
2018-08-22T08:49:17.418Z,23.40
2018-08-22T08:51:57.349Z,23.70
2018-08-22T08:54:26.424Z,23.80
2018-08-22T08:56:54.899Z,23.90
2018-08-22T08:59:23.394Z,23.90
2018-08-22T09:01:51.836Z,23.90
2018-08-22T09:04:21.592Z,24.00
2018-08-22T09:06:50.473Z,24.20
2018-08-22T09:09:18.928Z,24.60
2018-08-22T09:11:54.702Z,24.90
2018-08-22T09:14:23.164Z,24.80
2018-08-22T09:16:51.711Z,25.00
2018-08-22T09:19:20.192Z,24.80
2018-08-22T09:21:49.128Z,24.80
2018-08-22T09:24:17.581Z,25.10
2018-08-22T09:26:46.086Z,25.60
2018-08-22T09:29:14.674Z,26.00
2018-08-22T09:31:43.216Z,26.30
2018-08-22T09:34:11.721Z,26.80
2018-08-22T09:36:40.322Z,26.60
2018-08-22T09:39:11.270Z,26.80
2018-08-22T09:41:39.736Z,26.50
2018-08-22T09:44:08.515Z,26.40
2018-08-22T09:46:37.938Z,26.10
2018-08-22T09:49:06.501Z,26.10
2018-08-22T09:51:35.086Z,26.40
2018-08-22T09:54:03.563Z,26.30
2018-08-22T09:56:32.181Z,26.00
2018-08-22T09:59:00.738Z,25.90
2018-08-22T10:01:34.550Z,25.80
2018-08-22T10:04:03.269Z,26.20
2018-08-22T10:06:38.850Z,26.10
2018-08-22T10:09:11.501Z,26.30
2018-08-22T10:11:39.982Z,26.10
2018-08-22T10:14:08.528Z,26.10
2018-08-22T10:16:37.092Z,26.00
2018-08-22T10:19:05.763Z,26.10
2018-08-22T10:21:34.162Z,26.10
2018-08-22T10:24:02.627Z,26.50
2018-08-22T10:26:31.114Z,26.60
2018-08-22T10:28:59.558Z,26.60
2018-08-22T10:31:28.121Z,26.30
2018-08-22T10:33:56.860Z,26.20
2018-08-22T10:36:25.624Z,26.30
2018-08-22T10:38:54.400Z,26.40
2018-08-22T10:41:22.872Z,26.30
2018-08-22T10:43:51.431Z,26.20
2018-08-22T10:46:19.905Z,26.20
2018-08-22T10:48:48.375Z,26.20
2018-08-22T10:51:16.884Z,26.20
2018-08-22T10:53:45.323Z,26.20
2018-08-22T10:56:13.890Z,26.30
2018-08-22T10:58:42.554Z,26.20
2018-08-22T11:01:11.070Z,26.00
2018-08-22T11:03:39.532Z,26.00
2018-08-22T11:06:08.053Z,26.00
2018-08-22T11:08:36.495Z,25.90
2018-08-22T11:11:05.056Z,26.00
2018-08-22T11:13:33.489Z,26.60
2018-08-22T11:16:02.148Z,27.00
2018-08-22T11:18:30.606Z,27.00
2018-08-22T11:21:11.679Z,26.70
2018-08-22T11:23:51.775Z,26.50
2018-08-22T11:26:31.597Z,26.60
2018-08-22T11:29:11.379Z,27.10
2018-08-22T11:31:51.138Z,27.80
2018-08-22T11:34:30.866Z,28.90
2018-08-22T11:37:03.963Z,29.40
2018-08-22T11:39:32.556Z,29.30
2018-08-22T11:42:01.403Z,28.60
2018-08-22T11:44:30.412Z,28.00
2018-08-22T11:46:59.433Z,27.30
2018-08-22T11:49:28.302Z,27.20
2018-08-22T11:51:57.305Z,27.60
2018-08-22T11:54:25.793Z,27.90
2018-08-22T11:56:54.252Z,28.10
2018-08-22T11:59:22.795Z,28.60
2018-08-22T12:01:51.907Z,29.20
2018-08-22T12:04:20.843Z,29.80
2018-08-22T12:06:49.812Z,30.30
2018-08-22T12:09:18.446Z,30.60
2018-08-22T12:11:46.905Z,30.00
2018-08-22T12:14:15.489Z,29.20
2018-08-22T12:16:44.018Z,28.20
2018-08-22T12:19:12.552Z,28.20
2018-08-22T12:21:41.842Z,28.60
2018-08-22T12:24:10.295Z,28.50
2018-08-22T12:26:38.734Z,28.70
2018-08-22T12:29:07.183Z,28.80
2018-08-22T12:31:35.725Z,28.30
2018-08-22T12:34:04.211Z,27.70
2018-08-22T12:36:32.661Z,27.70
2018-08-22T12:39:01.187Z,27.90
2018-08-22T12:41:29.659Z,27.80
2018-08-22T12:43:58.122Z,27.70
2018-08-22T12:46:26.711Z,27.60
2018-08-22T12:48:55.334Z,27.50
2018-08-22T12:51:23.767Z,27.40
2018-08-22T12:53:52.336Z,27.10
2018-08-22T12:56:20.862Z,26.90
2018-08-22T12:58:49.298Z,26.90
2018-08-22T13:01:17.946Z,26.70
2018-08-22T13:03:46.632Z,26.60
2018-08-22T13:06:15.145Z,26.40
2018-08-22T13:08:43.613Z,26.60
2018-08-22T13:11:12.090Z,26.80
2018-08-22T13:13:40.510Z,27.00
2018-08-22T13:16:08.987Z,27.10
2018-08-22T13:18:37.497Z,27.40
2018-08-22T13:21:05.961Z,27.70
2018-08-22T13:23:34.603Z,27.70
2018-08-22T13:26:03.126Z,27.70
2018-08-22T13:28:31.978Z,27.60
2018-08-22T13:31:00.462Z,28.10
2018-08-22T13:33:28.979Z,28.40
2018-08-22T13:35:57.443Z,27.90
2018-08-22T13:38:25.916Z,27.90
2018-08-22T13:40:54.489Z,28.00
2018-08-22T13:43:22.981Z,28.10
2018-08-22T13:45:51.472Z,27.80
2018-08-22T13:48:19.906Z,27.80
2018-08-22T13:50:48.418Z,27.90
2018-08-22T13:53:16.877Z,28.10
2018-08-22T13:55:45.504Z,28.20
2018-08-22T13:58:13.957Z,27.90
2018-08-22T14:00:42.433Z,27.70
2018-08-22T14:03:11.000Z,27.30
2018-08-22T14:05:39.521Z,27.20
2018-08-22T14:08:07.995Z,27.40
2018-08-22T14:10:36.499Z,27.70
2018-08-22T14:13:05.043Z,27.70
2018-08-22T14:15:33.540Z,27.90
2018-08-22T14:18:02.122Z,27.70
2018-08-22T14:20:31.010Z,27.40
2018-08-22T14:22:59.484Z,27.40
2018-08-22T14:25:27.968Z,27.20
2018-08-22T14:27:56.533Z,27.20
2018-08-22T14:30:24.998Z,27.30
2018-08-22T14:32:53.607Z,27.60
2018-08-22T14:35:22.043Z,27.70
2018-08-22T14:37:50.590Z,27.90
2018-08-22T14:40:19.207Z,27.90
2018-08-22T14:42:47.766Z,27.50
2018-08-22T14:45:16.342Z,27.30
2018-08-22T14:47:44.831Z,26.80
2018-08-22T14:50:13.345Z,26.60
2018-08-22T14:52:41.929Z,26.60
2018-08-22T14:55:10.415Z,26.70
2018-08-22T14:57:38.871Z,26.90
2018-08-22T15:00:08.124Z,26.80
2018-08-22T15:02:36.664Z,26.80
2018-08-22T15:05:05.356Z,26.90
2018-08-22T15:07:33.846Z,26.70
2018-08-22T15:10:02.380Z,26.50
2018-08-22T15:12:31.242Z,26.50
2018-08-22T15:15:00.009Z,26.50
2018-08-22T15:17:28.503Z,26.50
2018-08-22T15:19:56.972Z,26.50
2018-08-22T15:22:25.757Z,26.60
2018-08-22T15:24:54.495Z,26.60
2018-08-22T15:27:22.941Z,26.60
2018-08-22T15:29:51.544Z,26.60
2018-08-22T15:32:20.000Z,26.60
2018-08-22T15:34:51.440Z,26.30
2018-08-22T15:37:20.421Z,26.40
2018-08-22T15:39:49.180Z,26.20
2018-08-22T15:42:17.793Z,26.20
2018-08-22T15:44:46.350Z,26.10
2018-08-22T15:47:14.950Z,26.00
2018-08-22T15:49:44.491Z,26.10
2018-08-22T15:52:12.948Z,26.20
2018-08-22T15:54:41.421Z,26.20
2018-08-22T15:57:09.911Z,26.10
2018-08-22T15:59:38.391Z,26.20
2018-08-22T16:02:06.899Z,26.20
2018-08-22T16:04:50.920Z,26.30
2018-08-22T16:07:19.443Z,26.30
2018-08-22T16:09:47.886Z,26.30
2018-08-22T16:12:16.368Z,26.20
2018-08-22T16:14:44.915Z,26.10
2018-08-22T16:17:13.634Z,26.00
2018-08-22T16:19:42.259Z,25.90
2018-08-22T16:22:10.713Z,26.00
2018-08-22T16:24:41.402Z,25.90
2018-08-22T16:27:09.942Z,25.80
2018-08-22T16:29:38.382Z,25.80
2018-08-22T16:32:06.943Z,25.80
2018-08-22T16:34:35.518Z,25.70
2018-08-22T16:37:04.062Z,25.60
2018-08-22T16:39:40.766Z,25.60
2018-08-22T16:42:09.937Z,25.50
2018-08-22T16:44:38.743Z,25.40
2018-08-22T16:47:07.420Z,25.40
2018-08-22T16:49:35.984Z,25.30
2018-08-22T16:52:04.552Z,25.30
2018-08-22T16:54:33.063Z,25.20
2018-08-22T16:57:01.630Z,25.20
2018-08-22T16:59:30.360Z,25.10
2018-08-22T17:01:58.886Z,25.10
2018-08-22T17:04:27.303Z,25.10
2018-08-22T17:06:58.046Z,25.00
2018-08-22T17:09:27.844Z,24.90
2018-08-22T17:11:56.402Z,25.00
2018-08-22T17:14:24.983Z,25.00
2018-08-22T17:16:53.485Z,25.00
2018-08-22T17:19:22.055Z,24.90
2018-08-22T17:21:50.605Z,24.90
2018-08-22T17:24:19.078Z,24.80
2018-08-22T17:26:47.538Z,24.80
2018-08-22T17:29:17.404Z,24.80
2018-08-22T17:31:50.065Z,24.80
2018-08-22T17:34:18.538Z,24.70
2018-08-22T17:36:57.053Z,24.70
2018-08-22T17:39:27.175Z,24.60
2018-08-22T17:41:55.663Z,24.60
2018-08-22T17:44:24.111Z,24.60
2018-08-22T17:46:52.687Z,24.60
2018-08-22T17:49:21.136Z,24.50
2018-08-22T17:52:01.763Z,24.50
2018-08-22T17:54:30.239Z,24.40
2018-08-22T17:57:11.221Z,24.30
2018-08-22T17:59:40.617Z,24.30
2018-08-22T18:02:09.237Z,24.20
2018-08-22T18:04:49.059Z,24.10
2018-08-22T18:07:18.145Z,24.00
2018-08-22T18:09:47.858Z,24.00
2018-08-22T18:12:16.846Z,23.90
2018-08-22T18:14:45.315Z,23.90
2018-08-22T18:17:15.152Z,23.80
2018-08-22T18:19:43.633Z,23.70
2018-08-22T18:22:12.135Z,23.70
2018-08-22T18:24:45.892Z,23.60
2018-08-22T18:27:16.685Z,23.50
2018-08-22T18:29:46.383Z,23.50
2018-08-22T18:32:15.647Z,23.40
2018-08-22T18:34:57.740Z,23.40
2018-08-22T18:37:27.677Z,23.30
2018-08-22T18:40:23.930Z,23.20
2018-08-22T18:42:53.678Z,23.20
2018-08-22T18:45:22.818Z,23.10
2018-08-22T18:47:51.420Z,23.00
2018-08-22T18:50:20.133Z,22.90
2018-08-22T18:52:52.791Z,22.80
2018-08-22T18:55:22.561Z,22.70
2018-08-22T18:57:51.407Z,22.50
2018-08-22T19:00:19.906Z,22.40
2018-08-22T19:02:50.911Z,22.30
2018-08-22T19:05:27.238Z,22.30
2018-08-22T19:08:06.885Z,22.20
2018-08-22T19:10:36.547Z,22.20
2018-08-22T19:13:20.722Z,22.10
2018-08-22T19:15:52.544Z,22.00
2018-08-22T19:18:21.317Z,21.90
2018-08-22T19:20:50.259Z,21.90
2018-08-22T19:23:18.709Z,21.80
2018-08-22T19:25:48.835Z,21.70
2018-08-22T19:28:17.287Z,21.70
2018-08-22T19:30:45.792Z,21.60
2018-08-22T19:33:15.693Z,21.60
2018-08-22T19:35:44.841Z,21.60
2018-08-22T19:38:15.807Z,21.50
2018-08-22T19:40:44.285Z,21.40
2018-08-22T19:43:13.311Z,21.40
2018-08-22T19:45:41.900Z,21.30
2018-08-22T19:48:10.479Z,21.30
2018-08-22T19:50:38.978Z,21.30
2018-08-22T19:53:07.456Z,21.20
2018-08-22T19:55:36.843Z,21.20
2018-08-22T19:58:05.739Z,21.10
2018-08-22T20:00:34.301Z,21.00
2018-08-22T20:03:02.766Z,21.00
2018-08-22T20:05:52.625Z,20.90
2018-08-22T20:08:29.427Z,20.90
2018-08-22T20:10:58.776Z,20.90
2018-08-22T20:13:38.702Z,20.80
2018-08-22T20:16:07.320Z,20.80
2018-08-22T20:18:35.872Z,20.70
2018-08-22T20:21:04.511Z,20.70
2018-08-22T20:23:33.028Z,20.70
2018-08-22T20:26:01.950Z,20.70
2018-08-22T20:28:30.611Z,20.70
2018-08-22T20:31:03.428Z,20.70
2018-08-22T20:33:31.988Z,20.60
2018-08-22T20:36:00.590Z,20.70
2018-08-22T20:38:29.101Z,20.70
2018-08-22T20:41:01.763Z,20.70
2018-08-22T20:43:30.627Z,20.60
2018-08-22T20:45:59.087Z,20.60
2018-08-22T20:48:27.555Z,20.50
2018-08-22T20:50:56.028Z,20.50
2018-08-22T20:53:24.466Z,20.50
2018-08-22T20:55:52.915Z,20.40
2018-08-22T20:58:35.936Z,20.30
2018-08-22T21:01:07.387Z,20.30
2018-08-22T21:03:35.897Z,20.20
2018-08-22T21:06:08.493Z,20.20
2018-08-22T21:08:37.064Z,20.10
2018-08-22T21:11:05.865Z,20.10
2018-08-22T21:13:34.302Z,20.10
2018-08-22T21:16:02.842Z,20.00
2018-08-22T21:18:31.362Z,20.00
2018-08-22T21:20:59.929Z,19.90
2018-08-22T21:23:28.382Z,19.90
2018-08-22T21:25:56.839Z,19.90
2018-08-22T21:28:34.366Z,19.80
2018-08-22T21:31:04.215Z,19.80
2018-08-22T21:33:32.758Z,19.70
2018-08-22T21:36:01.293Z,19.70
2018-08-22T21:38:29.729Z,19.70
2018-08-22T21:40:58.262Z,19.70
2018-08-22T21:43:27.183Z,19.60
2018-08-22T21:45:55.689Z,19.60
2018-08-22T21:48:25.170Z,19.60
2018-08-22T21:50:53.633Z,19.60
2018-08-22T21:53:22.204Z,19.50
2018-08-22T21:55:51.849Z,19.50
2018-08-22T21:58:20.424Z,19.40
2018-08-22T22:00:49.037Z,19.40
2018-08-22T22:03:22.988Z,19.30
2018-08-22T22:05:57.102Z,19.30
2018-08-22T22:08:25.849Z,19.30
2018-08-22T22:11:02.809Z,19.30
2018-08-22T22:13:31.447Z,19.30
2018-08-22T22:16:01.416Z,19.20
2018-08-22T22:18:31.393Z,19.20
2018-08-22T22:21:10.467Z,19.30
2018-08-22T22:23:44.593Z,19.20
2018-08-22T22:26:13.974Z,19.10
2018-08-22T22:28:42.553Z,19.10
2018-08-22T22:31:15.472Z,19.10
2018-08-22T22:34:15.698Z,19.10
2018-08-22T22:36:44.234Z,19.00
2018-08-22T22:39:29.640Z,19.10
2018-08-22T22:41:58.089Z,19.00
2018-08-22T22:44:26.515Z,19.00
2018-08-22T22:46:54.989Z,18.90
2018-08-22T22:49:23.424Z,18.90
2018-08-22T22:51:51.899Z,18.90
2018-08-22T22:54:30.390Z,18.90
2018-08-22T22:56:58.946Z,18.90
2018-08-22T22:59:27.464Z,18.90
2018-08-22T23:01:56.000Z,18.80
2018-08-22T23:04:26.560Z,18.70
2018-08-22T23:07:35.486Z,18.70
2018-08-22T23:10:05.285Z,18.70
2018-08-22T23:12:48.095Z,18.70
2018-08-22T23:15:21.698Z,18.60
2018-08-22T23:17:51.738Z,18.60
2018-08-22T23:20:28.709Z,18.60
2018-08-22T23:22:57.415Z,18.60
2018-08-22T23:25:26.376Z,18.60
2018-08-22T23:27:55.069Z,18.60
2018-08-22T23:30:28.843Z,18.60
2018-08-22T23:32:57.450Z,18.70
2018-08-22T23:35:29.870Z,18.60
2018-08-22T23:38:00.473Z,18.60
2018-08-22T23:40:30.303Z,18.60
2018-08-22T23:42:58.808Z,18.50
2018-08-22T23:45:27.285Z,18.50
2018-08-22T23:47:55.767Z,18.50
2018-08-22T23:50:28.178Z,18.40
2018-08-22T23:52:56.893Z,18.50
2018-08-22T23:55:26.105Z,18.40
2018-08-22T23:57:55.911Z,18.40
